sensor_id;sensor_type;location;lat;lon;timestamp;P1;durP1;ratioP1;P2;durP2;ratioP2
19836;SDS011;10079;55.740;37.662;2023-05-15T00:03:03;9.40;;;6.87;;
19836;SDS011;10079;55.740;37.662;2023-05-15T00:06:09;9.30;;;6.90;;
19836;SDS011;10079;55.740;37.662;2023-05-15T00:09:13;11.10;;;7.20;;
19836;SDS011;10079;55.740;37.662;2023-05-15T00:12:22;9.10;;;7.20;;
19836;SDS011;10079;55.740;37.662;2023-05-15T00:15:25;13.60;;;7.17;;
19836;SDS011;10079;55.740;37.662;2023-05-15T00:18:28;11.27;;;7.20;;
19836;SDS011;10079;55.740;37.662;2023-05-15T00:21:34;11.73;;;6.60;;
19836;SDS011;10079;55.740;37.662;2023-05-15T00:24:40;12.47;;;7.47;;
19836;SDS011;10079;55.740;37.662;2023-05-15T00:27:56;11.70;;;7.60;;
19836;SDS011;10079;55.740;37.662;2023-05-15T00:31:07;12.80;;;7.40;;
19836;SDS011;10079;55.740;37.662;2023-05-15T00:34:13;8.73;;;7.37;;
19836;SDS011;10079;55.740;37.662;2023-05-15T00:37:17;10.00;;;7.40;;
19836;SDS011;10079;55.740;37.662;2023-05-15T00:40:20;15.33;;;8.93;;
19836;SDS011;10079;55.740;37.662;2023-05-15T00:43:24;11.00;;;6.93;;
19836;SDS011;10079;55.740;37.662;2023-05-15T00:46:26;13.27;;;7.03;;
19836;SDS011;10079;55.740;37.662;2023-05-15T00:49:29;11.53;;;7.20;;
19836;SDS011;10079;55.740;37.662;2023-05-15T00:52:44;10.03;;;7.37;;
19836;SDS011;10079;55.740;37.662;2023-05-15T00:55:50;9.40;;;6.83;;
19836;SDS011;10079;55.740;37.662;2023-05-15T00:59:06;10.53;;;7.40;;
19836;SDS011;10079;55.740;37.662;2023-05-15T01:02:21;12.60;;;7.63;;
19836;SDS011;10079;55.740;37.662;2023-05-15T01:05:27;12.40;;;6.90;;
19836;SDS011;10079;55.740;37.662;2023-05-15T01:08:36;13.87;;;7.37;;
19836;SDS011;10079;55.740;37.662;2023-05-15T01:11:36;10.90;;;7.57;;
19836;SDS011;10079;55.740;37.662;2023-05-15T01:14:39;12.80;;;7.10;;
19836;SDS011;10079;55.740;37.662;2023-05-15T01:17:42;12.17;;;7.93;;
19836;SDS011;10079;55.740;37.662;2023-05-15T01:21:26;13.40;;;7.77;;
19836;SDS011;10079;55.740;37.662;2023-05-15T01:27:47;17.07;;;7.47;;
19836;SDS011;10079;55.740;37.662;2023-05-15T01:30:52;10.50;;;7.53;;
19836;SDS011;10079;55.740;37.662;2023-05-15T01:34:08;13.27;;;8.00;;
19836;SDS011;10079;55.740;37.662;2023-05-15T01:37:23;12.33;;;8.23;;
19836;SDS011;10079;55.740;37.662;2023-05-15T01:40:37;11.67;;;8.10;;
19836;SDS011;10079;55.740;37.662;2023-05-15T01:43:59;11.50;;;8.27;;
19836;SDS011;10079;55.740;37.662;2023-05-15T01:47:14;13.83;;;8.17;;
19836;SDS011;10079;55.740;37.662;2023-05-15T01:50:28;13.80;;;8.03;;
19836;SDS011;10079;55.740;37.662;2023-05-15T01:53:43;14.97;;;8.20;;
19836;SDS011;10079;55.740;37.662;2023-05-15T01:56:45;14.00;;;7.80;;
19836;SDS011;10079;55.740;37.662;2023-05-15T01:59:57;12.80;;;7.30;;
19836;SDS011;10079;55.740;37.662;2023-05-15T02:03:03;10.33;;;7.60;;
19836;SDS011;10079;55.740;37.662;2023-05-15T02:06:09;11.53;;;7.87;;
19836;SDS011;10079;55.740;37.662;2023-05-15T02:09:16;12.87;;;7.90;;
19836;SDS011;10079;55.740;37.662;2023-05-15T02:12:22;14.57;;;7.77;;
19836;SDS011;10079;55.740;37.662;2023-05-15T02:36:32;10.37;;;8.00;;
19836;SDS011;10079;55.740;37.662;2023-05-15T02:39:35;12.23;;;7.63;;
19836;SDS011;10079;55.740;37.662;2023-05-15T02:42:42;11.40;;;7.83;;
19836;SDS011;10079;55.740;37.662;2023-05-15T02:45:48;11.17;;;7.37;;
19836;SDS011;10079;55.740;37.662;2023-05-15T02:48:54;12.63;;;8.43;;
19836;SDS011;10079;55.740;37.662;2023-05-15T02:51:57;9.57;;;7.13;;
19836;SDS011;10079;55.740;37.662;2023-05-15T02:55:00;12.30;;;7.63;;
19836;SDS011;10079;55.740;37.662;2023-05-15T02:58:03;10.93;;;7.60;;
19836;SDS011;10079;55.740;37.662;2023-05-15T03:01:19;12.17;;;7.50;;
19836;SDS011;10079;55.740;37.662;2023-05-15T03:04:34;10.43;;;7.97;;
19836;SDS011;10079;55.740;37.662;2023-05-15T03:07:39;10.20;;;6.83;;
19836;SDS011;10079;55.740;37.662;2023-05-15T03:10:55;9.77;;;6.77;;
19836;SDS011;10079;55.740;37.662;2023-05-15T03:13:59;10.83;;;7.33;;
19836;SDS011;10079;55.740;37.662;2023-05-15T03:17:02;7.40;;;6.40;;
19836;SDS011;10079;55.740;37.662;2023-05-15T03:20:06;11.70;;;6.97;;
19836;SDS011;10079;55.740;37.662;2023-05-15T03:23:11;12.93;;;6.70;;
19836;SDS011;10079;55.740;37.662;2023-05-15T03:26:26;9.37;;;6.20;;
19836;SDS011;10079;55.740;37.662;2023-05-15T03:29:29;11.10;;;6.73;;
19836;SDS011;10079;55.740;37.662;2023-05-15T03:32:32;8.67;;;6.20;;
19836;SDS011;10079;55.740;37.662;2023-05-15T03:35:35;7.37;;;6.13;;
19836;SDS011;10079;55.740;37.662;2023-05-15T03:38:38;9.60;;;5.93;;
19836;SDS011;10079;55.740;37.662;2023-05-15T03:41:45;9.90;;;6.03;;
19836;SDS011;10079;55.740;37.662;2023-05-15T03:55:18;7.03;;;6.33;;
19836;SDS011;10079;55.740;37.662;2023-05-15T03:58:22;7.40;;;5.80;;
19836;SDS011;10079;55.740;37.662;2023-05-15T04:01:37;7.23;;;6.00;;
19836;SDS011;10079;55.740;37.662;2023-05-15T04:04:42;7.53;;;5.85;;
19836;SDS011;10079;55.740;37.662;2023-05-15T04:07:49;8.75;;;5.80;;
19836;SDS011;10079;55.740;37.662;2023-05-15T04:10:55;8.95;;;5.43;;
19836;SDS011;10079;55.740;37.662;2023-05-15T04:14:02;6.50;;;5.45;;
19836;SDS011;10079;55.740;37.662;2023-05-15T04:17:08;5.80;;;5.10;;
19836;SDS011;10079;55.740;37.662;2023-05-15T04:20:15;7.57;;;5.30;;
19836;SDS011;10079;55.740;37.662;2023-05-15T04:23:30;13.10;;;5.28;;
19836;SDS011;10079;55.740;37.662;2023-05-15T04:26:36;7.93;;;4.90;;
19836;SDS011;10079;55.740;37.662;2023-05-15T04:29:48;7.35;;;5.00;;
19836;SDS011;10079;55.740;37.662;2023-05-15T04:32:54;6.87;;;4.65;;
19836;SDS011;10079;55.740;37.662;2023-05-15T04:36:00;6.72;;;4.22;;
19836;SDS011;10079;55.740;37.662;2023-05-15T04:39:07;5.62;;;4.57;;
19836;SDS011;10079;55.740;37.662;2023-05-15T04:42:13;6.97;;;4.43;;
19836;SDS011;10079;55.740;37.662;2023-05-15T04:45:19;5.50;;;3.80;;
19836;SDS011;10079;55.740;37.662;2023-05-15T04:48:35;4.57;;;3.70;;
19836;SDS011;10079;55.740;37.662;2023-05-15T04:51:41;8.95;;;3.78;;
19836;SDS011;10079;55.740;37.662;2023-05-15T04:54:55;10.25;;;4.00;;
19836;SDS011;10079;55.740;37.662;2023-05-15T04:58:11;10.70;;;3.78;;
19836;SDS011;10079;55.740;37.662;2023-05-15T05:01:26;7.85;;;3.78;;
19836;SDS011;10079;55.740;37.662;2023-05-15T05:04:31;6.43;;;4.05;;
19836;SDS011;10079;55.740;37.662;2023-05-15T05:07:38;3.87;;;2.95;;
19836;SDS011;10079;55.740;37.662;2023-05-15T05:10:44;4.47;;;2.60;;
19836;SDS011;10079;55.740;37.662;2023-05-15T05:14:01;3.65;;;2.10;;
19836;SDS011;10079;55.740;37.662;2023-05-15T05:17:04;2.33;;;2.12;;
19836;SDS011;10079;55.740;37.662;2023-05-15T05:30:38;4.50;;;2.47;;
19836;SDS011;10079;55.740;37.662;2023-05-15T05:33:40;2.22;;;1.80;;
19836;SDS011;10079;55.740;37.662;2023-05-15T05:36:46;2.87;;;2.20;;
19836;SDS011;10079;55.740;37.662;2023-05-15T05:39:53;2.70;;;1.77;;
19836;SDS011;10079;55.740;37.662;2023-05-15T05:42:59;8.48;;;7.00;;
19836;SDS011;10079;55.740;37.662;2023-05-15T05:46:05;2.47;;;2.00;;
19836;SDS011;10079;55.740;37.662;2023-05-15T05:58:33;2.22;;;1.58;;
19836;SDS011;10079;55.740;37.662;2023-05-15T06:01:36;2.08;;;1.60;;
19836;SDS011;10079;55.740;37.662;2023-05-15T06:04:50;2.90;;;1.80;;
19836;SDS011;10079;55.740;37.662;2023-05-15T06:08:05;1.50;;;1.40;;
19836;SDS011;10079;55.740;37.662;2023-05-15T06:21:47;3.15;;;1.42;;
19836;SDS011;10079;55.740;37.662;2023-05-15T06:25:03;4.00;;;1.35;;
19836;SDS011;10079;55.740;37.662;2023-05-15T06:28:08;3.40;;;2.53;;
19836;SDS011;10079;55.740;37.662;2023-05-15T06:31:24;1.73;;;1.08;;
19836;SDS011;10079;55.740;37.662;2023-05-15T06:34:30;1.10;;;0.95;;
19836;SDS011;10079;55.740;37.662;2023-05-15T06:37:45;2.25;;;1.30;;
19836;SDS011;10079;55.740;37.662;2023-05-15T06:40:48;1.15;;;1.10;;
19836;SDS011;10079;55.740;37.662;2023-05-15T06:43:51;5.10;;;1.48;;
19836;SDS011;10079;55.740;37.662;2023-05-15T06:46:57;2.25;;;1.42;;
19836;SDS011;10079;55.740;37.662;2023-05-15T06:50:00;3.12;;;1.40;;
19836;SDS011;10079;55.740;37.662;2023-05-15T06:53:03;2.05;;;1.30;;
19836;SDS011;10079;55.740;37.662;2023-05-15T06:56:06;1.60;;;1.50;;
19836;SDS011;10079;55.740;37.662;2023-05-15T06:59:12;2.22;;;1.75;;
19836;SDS011;10079;55.740;37.662;2023-05-15T07:02:18;1.83;;;1.40;;
19836;SDS011;10079;55.740;37.662;2023-05-15T07:05:25;2.47;;;1.12;;
19836;SDS011;10079;55.740;37.662;2023-05-15T07:08:40;1.65;;;1.40;;
19836;SDS011;10079;55.740;37.662;2023-05-15T07:22:26;2.78;;;1.33;;
19836;SDS011;10079;55.740;37.662;2023-05-15T07:25:33;2.83;;;1.75;;
19836;SDS011;10079;55.740;37.662;2023-05-15T07:28:36;2.20;;;1.20;;
19836;SDS011;10079;55.740;37.662;2023-05-15T07:50:41;3.00;;;1.33;;
19836;SDS011;10079;55.740;37.662;2023-05-15T08:04:26;2.35;;;1.42;;
19836;SDS011;10079;55.740;37.662;2023-05-15T08:07:33;1.90;;;1.20;;
19836;SDS011;10079;55.740;37.662;2023-05-15T08:10:39;1.40;;;1.30;;
19836;SDS011;10079;55.740;37.662;2023-05-15T08:13:42;4.18;;;1.58;;
19836;SDS011;10079;55.740;37.662;2023-05-15T08:16:45;2.87;;;1.33;;
19836;SDS011;10079;55.740;37.662;2023-05-15T08:19:57;2.10;;;1.50;;
19836;SDS011;10079;55.740;37.662;2023-05-15T08:23:03;1.55;;;1.40;;
19836;SDS011;10079;55.740;37.662;2023-05-15T08:26:06;1.58;;;1.48;;
19836;SDS011;10079;55.740;37.662;2023-05-15T08:29:09;4.28;;;1.42;;
19836;SDS011;10079;55.740;37.662;2023-05-15T08:32:24;3.85;;;1.27;;
19836;SDS011;10079;55.740;37.662;2023-05-15T08:35:30;2.55;;;1.30;;
19836;SDS011;10079;55.740;37.662;2023-05-15T08:38:37;2.10;;;1.40;;
19836;SDS011;10079;55.740;37.662;2023-05-15T08:44:59;3.17;;;1.52;;
19836;SDS011;10079;55.740;37.662;2023-05-15T08:48:02;2.62;;;1.60;;
19836;SDS011;10079;55.740;37.662;2023-05-15T08:51:06;2.08;;;1.60;;
19836;SDS011;10079;55.740;37.662;2023-05-15T08:54:09;2.00;;;1.40;;
19836;SDS011;10079;55.740;37.662;2023-05-15T08:57:12;2.17;;;1.42;;
19836;SDS011;10079;55.740;37.662;2023-05-15T09:00:15;2.20;;;1.23;;
19836;SDS011;10079;55.740;37.662;2023-05-15T09:03:20;2.47;;;1.60;;
19836;SDS011;10079;55.740;37.662;2023-05-15T09:06:23;3.97;;;1.87;;
19836;SDS011;10079;55.740;37.662;2023-05-15T09:09:26;2.28;;;1.92;;
19836;SDS011;10079;55.740;37.662;2023-05-15T09:12:28;2.12;;;1.50;;
19836;SDS011;10079;55.740;37.662;2023-05-15T09:15:31;1.60;;;1.20;;
19836;SDS011;10079;55.740;37.662;2023-05-15T09:18:35;3.25;;;1.52;;
19836;SDS011;10079;55.740;37.662;2023-05-15T09:21:38;2.42;;;1.50;;
19836;SDS011;10079;55.740;37.662;2023-05-15T09:24:41;1.15;;;1.05;;
19836;SDS011;10079;55.740;37.662;2023-05-15T09:27:44;1.33;;;1.23;;
19836;SDS011;10079;55.740;37.662;2023-05-15T09:30:46;3.28;;;1.40;;
19836;SDS011;10079;55.740;37.662;2023-05-15T09:33:57;6.37;;;1.48;;
19836;SDS011;10079;55.740;37.662;2023-05-15T09:36:59;3.15;;;1.30;;
19836;SDS011;10079;55.740;37.662;2023-05-15T09:40:06;1.62;;;1.40;;
19836;SDS011;10079;55.740;37.662;2023-05-15T09:43:09;1.50;;;1.30;;
19836;SDS011;10079;55.740;37.662;2023-05-15T09:46:12;3.35;;;1.40;;
19836;SDS011;10079;55.740;37.662;2023-05-15T09:49:20;1.30;;;1.20;;
19836;SDS011;10079;55.740;37.662;2023-05-15T09:52:26;1.52;;;1.42;;
19836;SDS011;10079;55.740;37.662;2023-05-15T09:55:42;4.40;;;1.85;;
19836;SDS011;10079;55.740;37.662;2023-05-15T09:58:53;2.05;;;1.48;;
19836;SDS011;10079;55.740;37.662;2023-05-15T10:01:59;1.87;;;1.17;;
19836;SDS011;10079;55.740;37.662;2023-05-15T10:05:05;2.42;;;1.17;;
19836;SDS011;10079;55.740;37.662;2023-05-15T10:08:53;2.65;;;1.17;;
19836;SDS011;10079;55.740;37.662;2023-05-15T10:11:57;1.42;;;1.12;;
19836;SDS011;10079;55.740;37.662;2023-05-15T10:15:03;4.18;;;1.33;;
19836;SDS011;10079;55.740;37.662;2023-05-15T10:18:18;4.15;;;1.52;;
19836;SDS011;10079;55.740;37.662;2023-05-15T10:21:33;2.50;;;1.30;;
19836;SDS011;10079;55.740;37.662;2023-05-15T10:24:36;2.85;;;1.37;;
19836;SDS011;10079;55.740;37.662;2023-05-15T10:44:03;2.10;;;1.30;;
19836;SDS011;10079;55.740;37.662;2023-05-15T10:47:06;2.97;;;1.23;;
19836;SDS011;10079;55.740;37.662;2023-05-15T10:50:11;3.53;;;1.40;;
19836;SDS011;10079;55.740;37.662;2023-05-15T10:53:18;2.60;;;1.50;;
19836;SDS011;10079;55.740;37.662;2023-05-15T10:56:26;2.20;;;1.20;;
19836;SDS011;10079;55.740;37.662;2023-05-15T10:59:31;2.10;;;1.33;;
19836;SDS011;10079;55.740;37.662;2023-05-15T11:02:37;2.07;;;1.33;;
19836;SDS011;10079;55.740;37.662;2023-05-15T11:22:56;2.70;;;1.97;;
19836;SDS011;10079;55.740;37.662;2023-05-15T11:36:36;1.50;;;1.40;;
19836;SDS011;10079;55.740;37.662;2023-05-15T11:39:40;3.93;;;1.73;;
19836;SDS011;10079;55.740;37.662;2023-05-15T11:42:55;4.17;;;1.40;;
19836;SDS011;10079;55.740;37.662;2023-05-15T11:45:53;3.03;;;1.70;;
19836;SDS011;10079;55.740;37.662;2023-05-15T11:48:58;3.07;;;1.40;;
19836;SDS011;10079;55.740;37.662;2023-05-15T11:52:02;1.83;;;1.50;;
19836;SDS011;10079;55.740;37.662;2023-05-15T11:55:17;2.10;;;1.20;;
19836;SDS011;10079;55.740;37.662;2023-05-15T11:58:22;3.53;;;1.27;;
19836;SDS011;10079;55.740;37.662;2023-05-15T12:01:25;3.97;;;1.60;;
19836;SDS011;10079;55.740;37.662;2023-05-15T12:04:47;4.80;;;1.37;;
19836;SDS011;10079;55.740;37.662;2023-05-15T12:07:48;2.67;;;1.50;;
19836;SDS011;10079;55.740;37.662;2023-05-15T12:10:51;3.33;;;2.03;;
19836;SDS011;10079;55.740;37.662;2023-05-15T12:13:54;3.10;;;1.50;;
19836;SDS011;10079;55.740;37.662;2023-05-15T12:17:00;2.10;;;1.70;;
19836;SDS011;10079;55.740;37.662;2023-05-15T12:20:07;4.03;;;1.73;;
19836;SDS011;10079;55.740;37.662;2023-05-15T12:23:13;4.87;;;1.80;;
19836;SDS011;10079;55.740;37.662;2023-05-15T12:26:13;4.90;;;1.30;;
19836;SDS011;10079;55.740;37.662;2023-05-15T12:29:16;4.60;;;1.50;;
19836;SDS011;10079;55.740;37.662;2023-05-15T12:32:22;2.37;;;1.40;;
19836;SDS011;10079;55.740;37.662;2023-05-15T12:35:25;2.07;;;1.50;;
19836;SDS011;10079;55.740;37.662;2023-05-15T12:38:31;2.27;;;1.47;;
19836;SDS011;10079;55.740;37.662;2023-05-15T12:56:09;2.00;;;1.53;;
19836;SDS011;10079;55.740;37.662;2023-05-15T12:59:25;2.20;;;1.50;;
19836;SDS011;10079;55.740;37.662;2023-05-15T13:02:41;3.63;;;1.43;;
19836;SDS011;10079;55.740;37.662;2023-05-15T13:05:51;2.50;;;1.33;;
19836;SDS011;10079;55.740;37.662;2023-05-15T13:08:54;4.63;;;1.40;;
19836;SDS011;10079;55.740;37.662;2023-05-15T13:12:09;2.57;;;1.50;;
19836;SDS011;10079;55.740;37.662;2023-05-15T13:28:59;3.23;;;1.73;;
19836;SDS011;10079;55.740;37.662;2023-05-15T13:32:10;1.77;;;1.40;;
19836;SDS011;10079;55.740;37.662;2023-05-15T13:35:16;2.87;;;1.40;;
19836;SDS011;10079;55.740;37.662;2023-05-15T13:38:22;3.77;;;1.50;;
19836;SDS011;10079;55.740;37.662;2023-05-15T13:41:26;3.87;;;1.30;;
19836;SDS011;10079;55.740;37.662;2023-05-15T13:44:29;1.70;;;1.30;;
19836;SDS011;10079;55.740;37.662;2023-05-15T13:47:32;2.60;;;1.47;;
19836;SDS011;10079;55.740;37.662;2023-05-15T13:50:38;4.77;;;1.63;;
19836;SDS011;10079;55.740;37.662;2023-05-15T13:53:42;3.13;;;1.90;;
19836;SDS011;10079;55.740;37.662;2023-05-15T13:56:48;1.90;;;1.60;;
19836;SDS011;10079;55.740;37.662;2023-05-15T13:59:54;3.40;;;1.63;;
19836;SDS011;10079;55.740;37.662;2023-05-15T14:02:57;4.20;;;1.70;;
19836;SDS011;10079;55.740;37.662;2023-05-15T14:06:06;2.27;;;1.60;;
19836;SDS011;10079;55.740;37.662;2023-05-15T14:09:24;3.63;;;1.80;;
19836;SDS011;10079;55.740;37.662;2023-05-15T14:12:29;4.50;;;2.10;;
19836;SDS011;10079;55.740;37.662;2023-05-15T14:15:35;2.77;;;1.90;;
19836;SDS011;10079;55.740;37.662;2023-05-15T14:18:38;3.33;;;1.70;;
19836;SDS011;10079;55.740;37.662;2023-05-15T14:21:53;2.63;;;1.57;;
19836;SDS011;10079;55.740;37.662;2023-05-15T14:24:59;8.40;;;2.00;;
19836;SDS011;10079;55.740;37.662;2023-05-15T14:28:05;3.20;;;1.80;;
19836;SDS011;10079;55.740;37.662;2023-05-15T14:31:12;4.07;;;1.97;;
19836;SDS011;10079;55.740;37.662;2023-05-15T14:34:15;3.13;;;1.63;;
19836;SDS011;10079;55.740;37.662;2023-05-15T14:37:18;5.63;;;1.90;;
19836;SDS011;10079;55.740;37.662;2023-05-15T14:40:21;2.73;;;1.43;;
19836;SDS011;10079;55.740;37.662;2023-05-15T14:43:36;2.77;;;1.73;;
19836;SDS011;10079;55.740;37.662;2023-05-15T14:50:14;4.07;;;1.80;;
19836;SDS011;10079;55.740;37.662;2023-05-15T14:53:17;2.67;;;1.40;;
19836;SDS011;10079;55.740;37.662;2023-05-15T14:56:20;2.73;;;1.50;;
19836;SDS011;10079;55.740;37.662;2023-05-15T14:59:24;3.40;;;1.90;;
19836;SDS011;10079;55.740;37.662;2023-05-15T15:02:26;2.60;;;1.40;;
19836;SDS011;10079;55.740;37.662;2023-05-15T15:05:29;4.27;;;1.50;;
19836;SDS011;10079;55.740;37.662;2023-05-15T15:08:44;1.63;;;1.50;;
19836;SDS011;10079;55.740;37.662;2023-05-15T15:11:59;3.10;;;2.30;;
19836;SDS011;10079;55.740;37.662;2023-05-15T15:15:02;3.70;;;2.30;;
19836;SDS011;10079;55.740;37.662;2023-05-15T15:18:05;2.90;;;1.80;;
19836;SDS011;10079;55.740;37.662;2023-05-15T15:21:08;2.47;;;1.53;;
19836;SDS011;10079;55.740;37.662;2023-05-15T15:24:11;2.60;;;1.60;;
19836;SDS011;10079;55.740;37.662;2023-05-15T15:27:21;2.73;;;1.40;;
19836;SDS011;10079;55.740;37.662;2023-05-15T15:30:38;3.73;;;1.80;;
19836;SDS011;10079;55.740;37.662;2023-05-15T15:33:53;1.90;;;1.50;;
19836;SDS011;10079;55.740;37.662;2023-05-15T15:36:59;2.30;;;1.50;;
19836;SDS011;10079;55.740;37.662;2023-05-15T15:40:06;3.27;;;1.50;;
19836;SDS011;10079;55.740;37.662;2023-05-15T15:43:21;2.33;;;1.60;;
19836;SDS011;10079;55.740;37.662;2023-05-15T15:46:24;3.23;;;1.43;;
19836;SDS011;10079;55.740;37.662;2023-05-15T15:49:36;5.80;;;1.73;;
19836;SDS011;10079;55.740;37.662;2023-05-15T15:52:41;2.70;;;1.10;;
19836;SDS011;10079;55.740;37.662;2023-05-15T15:57:38;3.40;;;1.33;;
19836;SDS011;10079;55.740;37.662;2023-05-15T16:04:40;3.93;;;1.53;;
19836;SDS011;10079;55.740;37.662;2023-05-15T16:07:43;2.50;;;1.50;;
19836;SDS011;10079;55.740;37.662;2023-05-15T16:10:58;4.57;;;1.47;;
19836;SDS011;10079;55.740;37.662;2023-05-15T16:14:13;6.73;;;2.00;;
19836;SDS011;10079;55.740;37.662;2023-05-15T16:17:20;2.60;;;1.50;;
19836;SDS011;10079;55.740;37.662;2023-05-15T16:20:26;3.73;;;1.50;;
19836;SDS011;10079;55.740;37.662;2023-05-15T16:23:33;2.47;;;1.23;;
19836;SDS011;10079;55.740;37.662;2023-05-15T16:29:37;3.20;;;1.57;;
19836;SDS011;10079;55.740;37.662;2023-05-15T16:32:53;3.13;;;1.57;;
19836;SDS011;10079;55.740;37.662;2023-05-15T16:35:59;3.17;;;1.57;;
19836;SDS011;10079;55.740;37.662;2023-05-15T16:39:10;2.27;;;1.40;;
19836;SDS011;10079;55.740;37.662;2023-05-15T16:42:13;2.57;;;1.50;;
19836;SDS011;10079;55.740;37.662;2023-05-15T16:45:16;1.93;;;1.63;;
19836;SDS011;10079;55.740;37.662;2023-05-15T16:48:23;4.87;;;1.73;;
19836;SDS011;10079;55.740;37.662;2023-05-15T16:51:29;6.53;;;1.97;;
19836;SDS011;10079;55.740;37.662;2023-05-15T16:54:35;3.33;;;1.60;;
19836;SDS011;10079;55.740;37.662;2023-05-15T16:57:39;3.93;;;1.90;;
19836;SDS011;10079;55.740;37.662;2023-05-15T17:00:42;2.80;;;1.70;;
19836;SDS011;10079;55.740;37.662;2023-05-15T17:03:48;4.57;;;1.53;;
19836;SDS011;10079;55.740;37.662;2023-05-15T17:06:51;3.10;;;1.77;;
19836;SDS011;10079;55.740;37.662;2023-05-15T17:09:54;4.73;;;1.43;;
19836;SDS011;10079;55.740;37.662;2023-05-15T17:12:57;3.10;;;1.97;;
19836;SDS011;10079;55.740;37.662;2023-05-15T17:16:00;6.73;;;1.93;;
19836;SDS011;10079;55.740;37.662;2023-05-15T17:19:06;4.57;;;1.87;;
19836;SDS011;10079;55.740;37.662;2023-05-15T17:22:21;4.37;;;1.80;;
19836;SDS011;10079;55.740;37.662;2023-05-15T17:25:36;5.10;;;1.70;;
19836;SDS011;10079;55.740;37.662;2023-05-15T17:28:38;3.47;;;1.70;;
19836;SDS011;10079;55.740;37.662;2023-05-15T17:31:42;4.20;;;1.60;;
19836;SDS011;10079;55.740;37.662;2023-05-15T17:34:45;3.80;;;1.60;;
19836;SDS011;10079;55.740;37.662;2023-05-15T17:37:47;5.33;;;1.60;;
19836;SDS011;10079;55.740;37.662;2023-05-15T17:41:03;2.33;;;1.80;;
19836;SDS011;10079;55.740;37.662;2023-05-15T17:44:08;3.20;;;1.73;;
19836;SDS011;10079;55.740;37.662;2023-05-15T17:47:12;3.83;;;2.20;;
19836;SDS011;10079;55.740;37.662;2023-05-15T17:50:23;4.23;;;2.30;;
19836;SDS011;10079;55.740;37.662;2023-05-15T17:53:26;7.03;;;2.80;;
19836;SDS011;10079;55.740;37.662;2023-05-15T17:56:29;6.03;;;2.53;;
19836;SDS011;10079;55.740;37.662;2023-05-15T17:59:32;6.80;;;2.70;;
19836;SDS011;10079;55.740;37.662;2023-05-15T18:02:35;5.47;;;2.20;;
19836;SDS011;10079;55.740;37.662;2023-05-15T18:05:38;6.40;;;2.90;;
19836;SDS011;10079;55.740;37.662;2023-05-15T18:08:41;9.20;;;2.53;;
19836;SDS011;10079;55.740;37.662;2023-05-15T18:11:44;8.30;;;3.23;;
19836;SDS011;10079;55.740;37.662;2023-05-15T18:14:50;7.67;;;3.17;;
19836;SDS011;10079;55.740;37.662;2023-05-15T18:17:57;7.87;;;3.53;;
19836;SDS011;10079;55.740;37.662;2023-05-15T18:21:12;3.80;;;2.80;;
19836;SDS011;10079;55.740;37.662;2023-05-15T18:24:17;9.43;;;3.57;;
19836;SDS011;10079;55.740;37.662;2023-05-15T18:27:24;7.57;;;3.50;;
19836;SDS011;10079;55.740;37.662;2023-05-15T18:30:40;10.17;;;3.30;;
19836;SDS011;10079;55.740;37.662;2023-05-15T18:33:54;13.40;;;3.57;;
19836;SDS011;10079;55.740;37.662;2023-05-15T18:39:21;8.90;;;3.47;;
19836;SDS011;10079;55.740;37.662;2023-05-15T18:42:28;7.73;;;3.00;;
19836;SDS011;10079;55.740;37.662;2023-05-15T18:45:34;7.00;;;3.03;;
19836;SDS011;10079;55.740;37.662;2023-05-15T19:05:38;8.97;;;3.47;;
19836;SDS011;10079;55.740;37.662;2023-05-15T19:08:41;8.77;;;3.07;;
19836;SDS011;10079;55.740;37.662;2023-05-15T19:11:52;6.47;;;3.03;;
19836;SDS011;10079;55.740;37.662;2023-05-15T19:14:58;10.37;;;4.90;;
19836;SDS011;10079;55.740;37.662;2023-05-15T19:18:02;11.73;;;5.23;;
19836;SDS011;10079;55.740;37.662;2023-05-15T19:21:14;13.90;;;6.43;;
19836;SDS011;10079;55.740;37.662;2023-05-15T19:24:20;10.93;;;4.23;;
19836;SDS011;10079;55.740;37.662;2023-05-15T19:27:24;12.13;;;4.20;;
19836;SDS011;10079;55.740;37.662;2023-05-15T19:30:27;7.77;;;3.83;;
19836;SDS011;10079;55.740;37.662;2023-05-15T19:33:29;8.50;;;4.43;;
19836;SDS011;10079;55.740;37.662;2023-05-15T19:42:53;10.63;;;5.20;;
19836;SDS011;10079;55.740;37.662;2023-05-15T19:46:00;14.20;;;5.50;;
19836;SDS011;10079;55.740;37.662;2023-05-15T19:49:07;12.27;;;5.73;;
19836;SDS011;10079;55.740;37.662;2023-05-15T19:52:21;12.93;;;5.30;;
19836;SDS011;10079;55.740;37.662;2023-05-15T19:55:36;17.70;;;5.50;;
19836;SDS011;10079;55.740;37.662;2023-05-15T19:58:51;16.63;;;6.67;;
19836;SDS011;10079;55.740;37.662;2023-05-15T20:01:57;15.87;;;6.13;;
19836;SDS011;10079;55.740;37.662;2023-05-15T20:05:03;20.03;;;6.50;;
19836;SDS011;10079;55.740;37.662;2023-05-15T20:08:19;19.43;;;6.27;;
19836;SDS011;10079;55.740;37.662;2023-05-15T20:11:24;18.30;;;6.60;;
19836;SDS011;10079;55.740;37.662;2023-05-15T20:14:40;17.50;;;6.70;;
19836;SDS011;10079;55.740;37.662;2023-05-15T20:17:44;20.97;;;7.03;;
19836;SDS011;10079;55.740;37.662;2023-05-15T20:20:47;16.33;;;6.20;;
19836;SDS011;10079;55.740;37.662;2023-05-15T20:23:49;15.33;;;5.80;;
19836;SDS011;10079;55.740;37.662;2023-05-15T20:26:56;11.57;;;5.77;;
19836;SDS011;10079;55.740;37.662;2023-05-15T20:30:11;20.60;;;6.10;;
19836;SDS011;10079;55.740;37.662;2023-05-15T20:33:14;15.47;;;5.87;;
19836;SDS011;10079;55.740;37.662;2023-05-15T20:36:29;12.57;;;5.63;;
19836;SDS011;10079;55.740;37.662;2023-05-15T20:39:40;21.03;;;5.47;;
19836;SDS011;10079;55.740;37.662;2023-05-15T20:42:43;9.30;;;4.40;;
19836;SDS011;10079;55.740;37.662;2023-05-15T20:45:46;10.97;;;5.17;;
19836;SDS011;10079;55.740;37.662;2023-05-15T20:48:49;10.33;;;4.17;;
19836;SDS011;10079;55.740;37.662;2023-05-15T20:51:55;15.47;;;5.40;;
19836;SDS011;10079;55.740;37.662;2023-05-15T20:55:06;17.60;;;5.37;;
19836;SDS011;10079;55.740;37.662;2023-05-15T20:58:08;12.27;;;4.87;;
19836;SDS011;10079;55.740;37.662;2023-05-15T21:01:11;11.53;;;4.30;;
19836;SDS011;10079;55.740;37.662;2023-05-15T21:04:27;12.93;;;4.50;;
19836;SDS011;10079;55.740;37.662;2023-05-15T21:07:32;8.43;;;4.60;;
19836;SDS011;10079;55.740;37.662;2023-05-15T21:10:36;12.40;;;3.90;;
19836;SDS011;10079;55.740;37.662;2023-05-15T21:13:51;9.40;;;4.23;;
19836;SDS011;10079;55.740;37.662;2023-05-15T21:16:54;15.40;;;4.30;;
19836;SDS011;10079;55.740;37.662;2023-05-15T21:19:57;12.87;;;4.73;;
19836;SDS011;10079;55.740;37.662;2023-05-15T21:23:00;9.63;;;4.47;;
19836;SDS011;10079;55.740;37.662;2023-05-15T21:26:15;15.23;;;5.07;;
19836;SDS011;10079;55.740;37.662;2023-05-15T21:29:32;13.60;;;4.93;;
19836;SDS011;10079;55.740;37.662;2023-05-15T21:32:38;12.50;;;5.23;;
19836;SDS011;10079;55.740;37.662;2023-05-15T21:35:49;10.17;;;5.10;;
19836;SDS011;10079;55.740;37.662;2023-05-15T21:38:52;13.13;;;6.20;;
19836;SDS011;10079;55.740;37.662;2023-05-15T21:42:05;12.97;;;5.30;;
19836;SDS011;10079;55.740;37.662;2023-05-15T21:45:11;10.83;;;5.47;;
19836;SDS011;10079;55.740;37.662;2023-05-15T21:48:26;13.00;;;5.37;;
19836;SDS011;10079;55.740;37.662;2023-05-15T21:51:44;13.47;;;5.40;;
19836;SDS011;10079;55.740;37.662;2023-05-15T21:54:59;14.37;;;6.40;;
19836;SDS011;10079;55.740;37.662;2023-05-15T22:08:39;15.27;;;6.00;;
19836;SDS011;10079;55.740;37.662;2023-05-15T22:22:21;13.73;;;5.17;;
19836;SDS011;10079;55.740;37.662;2023-05-15T22:25:31;11.03;;;5.37;;
19836;SDS011;10079;55.740;37.662;2023-05-15T22:28:38;17.00;;;6.00;;